^^
No Wait Weather (KNEBELLE1) Station Historical Data
Daily Summary for May 19, 2019 Units:  English    Metric   Both
Daily Weekly Monthly Yearly Custom
  High: Low: Average:
Temperature: 58.4 °F 49.9 °F 55.2 °F
Dew Point: 57.26 °F 38.72 °F 46.1 °F
Humidity: 96% 54% 73%
Wind Speed: 7mph 0mph 0.2mph
Wind Gust: 11mph - -
Wind- - SW
Pressure: 29.92 in 29.42 in -
Precipitation: 0 in    
Historical Graphs
 
 
Tabular Data for May 19, 2019
Time Temperature Dew Point Pressure Wind Wind Speed Wind Gust Humidity Rainfall Rate (Hourly) solar
00:04 58.4 °F 57.26 °F 29.43 in Calm     96% 0 in WeatherCatV3.04B91 W/m2
00:09 58.4 °F 57.26 °F 29.43 in Calm     96% 0 in WeatherCatV3.04B91 W/m2
00:14 58.4 °F 57.26 °F 29.43 in Calm     96% 0 in WeatherCatV3.04B91 W/m2
00:19 58.4 °F 57.26 °F 29.43 in Calm   1 mph 96% 0 in WeatherCatV3.04B91 W/m2
00:24 58.4 °F 57.26 °F 29.43 in Calm     96% 0 in WeatherCatV3.04B91 W/m2
00:29 58.3 °F 57.16 °F 29.42 in Calm     96% 0 in WeatherCatV3.04B91 W/m2
00:34 58.1 °F 56.96 °F 29.42 in Calm     96% 0 in WeatherCatV3.04B91 W/m2
00:39 58 °F 56.86 °F 29.42 in Calm   1 mph 96% 0 in WeatherCatV3.04B91 W/m2
00:44 58 °F 56.86 °F 29.43 in Calm     96% 0 in WeatherCatV3.04B91 W/m2
00:49 58 °F 56.86 °F 29.43 in Calm     96% 0 in WeatherCatV3.04B91 W/m2
00:54 58 °F 56.86 °F 29.43 in Calm     96% 0 in WeatherCatV3.04B91 W/m2
00:59 58 °F 56.86 °F 29.42 in Calm     96% 0 in WeatherCatV3.04B91 W/m2
01:04 58 °F 56.86 °F 29.42 in Calm     96% 0 in WeatherCatV3.04B91 W/m2
01:09 57.8 °F 56.37 °F 29.42 in Calm   5 mph 95% 0 in WeatherCatV3.04B91 W/m2
01:14 57.6 °F 56.18 °F 29.42 in Calm   3 mph 95% 0 in WeatherCatV3.04B91 W/m2
01:19 57.5 °F 56.08 °F 29.42 in Calm   1 mph 95% 0 in WeatherCatV3.04B91 W/m2
01:24 57.5 °F 55.78 °F 29.42 in Calm   2 mph 94% 0 in WeatherCatV3.04B91 W/m2
01:29 57.3 °F 55.59 °F 29.42 in Calm     94% 0 in WeatherCatV3.04B91 W/m2
01:34 57.2 °F 55.19 °F 29.42 in NNW 1 mph 2 mph 93% 0 in WeatherCatV3.04B91 W/m2
01:39 57.2 °F 55.19 °F 29.42 in Calm   3 mph 93% 0 in WeatherCatV3.04B91 W/m2
01:44 57.2 °F 55.19 °F 29.43 in Calm     93% 0 in WeatherCatV3.04B91 W/m2
01:49 57 °F 54.7 °F 29.43 in Calm   4 mph 92% 0 in WeatherCatV3.04B91 W/m2
01:54 57.2 °F 54.59 °F 29.43 in Calm   1 mph 91% 0 in WeatherCatV3.04B91 W/m2
01:59 57 °F 54.4 °F 29.43 in Calm     91% 0 in WeatherCatV3.04B91 W/m2
02:04 57 °F 54.09 °F 29.43 in Calm     90% 0 in WeatherCatV3.04B91 W/m2
02:09 57 °F 54.09 °F 29.43 in Calm     90% 0 in WeatherCatV3.04B91 W/m2
02:14 57 °F 54.09 °F 29.44 in Calm   2 mph 90% 0 in WeatherCatV3.04B91 W/m2
02:19 56.9 °F 53.69 °F 29.44 in Calm   3 mph 89% 0 in WeatherCatV3.04B91 W/m2
02:24 56.9 °F 53.69 °F 29.44 in Calm     89% 0 in WeatherCatV3.04B91 W/m2
02:29 56.9 °F 53.69 °F 29.45 in Calm     89% 0 in WeatherCatV3.04B91 W/m2
02:34 56.7 °F 53.49 °F 29.45 in Calm     89% 0 in WeatherCatV3.04B91 W/m2
02:39 56.7 °F 53.49 °F 29.45 in Calm     89% 0 in WeatherCatV3.04B91 W/m2
02:44 56.7 °F 53.49 °F 29.44 in Calm     89% 0 in WeatherCatV3.04B91 W/m2
02:49 56.9 °F 53.38 °F 29.44 in Calm     88% 0 in WeatherCatV3.04B91 W/m2
02:54 56.7 °F 53.18 °F 29.44 in Calm     88% 0 in WeatherCatV3.04B91 W/m2
02:59 56.7 °F 53.18 °F 29.44 in Calm     88% 0 in WeatherCatV3.04B91 W/m2
03:04 56.7 °F 53.18 °F 29.44 in Calm     88% 0 in WeatherCatV3.04B91 W/m2
03:09 56.6 °F 53.08 °F 29.44 in Calm     88% 0 in WeatherCatV3.04B91 W/m2
03:14 56.6 °F 53.08 °F 29.45 in Calm     88% 0 in WeatherCatV3.04B91 W/m2
03:19 56.6 °F 53.08 °F 29.45 in Calm   1 mph 88% 0 in WeatherCatV3.04B91 W/m2
03:24 56.6 °F 52.77 °F 29.45 in Calm     87% 0 in WeatherCatV3.04B91 W/m2
03:29 56.5 °F 52.67 °F 29.45 in Calm     87% 0 in WeatherCatV3.04B91 W/m2
03:34 56.5 °F 52.67 °F 29.45 in Calm     87% 0 in WeatherCatV3.04B91 W/m2
03:39 56.5 °F 52.67 °F 29.45 in Calm     87% 0 in WeatherCatV3.04B91 W/m2
03:44 56.5 °F 52.67 °F 29.45 in Calm     87% 0 in WeatherCatV3.04B91 W/m2
03:49 56.5 °F 52.99 °F 29.45 in Calm     88% 0 in WeatherCatV3.04B91 W/m2
03:54 56.3 °F 52.79 °F 29.45 in Calm     88% 0 in WeatherCatV3.04B91 W/m2
03:59 56.3 °F 52.79 °F 29.45 in Calm     88% 0 in WeatherCatV3.04B91 W/m2
04:04 56.3 °F 52.79 °F 29.45 in Calm     88% 0 in WeatherCatV3.04B91 W/m2
04:09 56.2 °F 52.69 °F 29.45 in Calm     88% 0 in WeatherCatV3.04B91 W/m2
04:14 56.2 °F 52.69 °F 29.46 in Calm     88% 0 in WeatherCatV3.04B91 W/m2
04:19 56.2 °F 52.69 °F 29.46 in Calm     88% 0 in WeatherCatV3.04B91 W/m2
04:24 56.2 °F 52.69 °F 29.46 in Calm     88% 0 in WeatherCatV3.04B91 W/m2
04:29 56.2 °F 52.69 °F 29.47 in Calm     88% 0 in WeatherCatV3.04B91 W/m2
04:34 56.2 °F 52.69 °F 29.47 in Calm     88% 0 in WeatherCatV3.04B91 W/m2
04:39 56.2 °F 52.69 °F 29.47 in Calm     88% 0 in WeatherCatV3.04B91 W/m2
04:44 56.2 °F 52.69 °F 29.48 in Calm     88% 0 in WeatherCatV3.04B91 W/m2
04:49 56 °F 52.49 °F 29.48 in Calm     88% 0 in WeatherCatV3.04B91 W/m2
04:54 56 °F 52.49 °F 29.48 in Calm     88% 0 in WeatherCatV3.04B91 W/m2
04:59 56 °F 52.18 °F 29.48 in Calm     87% 0 in WeatherCatV3.04B91 W/m2
05:04 55.9 °F 52.09 °F 29.48 in Calm     87% 0 in WeatherCatV3.04B91 W/m2
05:09 55.9 °F 52.09 °F 29.48 in Calm     87% 0 in WeatherCatV3.04B91 W/m2
05:14 55.9 °F 51.77 °F 29.49 in Calm     86% 0 in WeatherCatV3.04B91 W/m2
05:19 55.9 °F 51.77 °F 29.49 in Calm     86% 0 in WeatherCatV3.04B91 W/m2
05:24 55.9 °F 51.77 °F 29.49 in Calm     86% 0 in WeatherCatV3.04B91 W/m2
05:29 55.9 °F 51.77 °F 29.49 in Calm     86% 0 in WeatherCatV3.04B91 W/m2
05:34 55.9 °F 51.77 °F 29.49 in Calm     86% 0 in WeatherCatV3.04B91 W/m2
05:39 55.7 °F 51.57 °F 29.49 in Calm   1 mph 86% 0 in WeatherCatV3.04B91 W/m2
05:44 55.7 °F 51.57 °F 29.49 in Calm     86% 0 in WeatherCatV3.04B91 W/m2
05:49 55.6 °F 51.48 °F 29.49 in Calm     86% 0 in WeatherCatV3.04B91 W/m2
05:54 55.6 °F 51.48 °F 29.49 in Calm     86% 0 in WeatherCatV3.04B91 W/m2
05:59 55.6 °F 51.48 °F 29.49 in Calm     86% 0 in WeatherCatV3.04B91 W/m2
06:04 55.6 °F 51.48 °F 29.49 in Calm     86% 0 in WeatherCatV3.04B91 W/m2
06:09 55.4 °F 51.59 °F 29.49 in Calm     87% 0 in WeatherCatV3.04B91 W/m2
06:14 55.3 °F 51.5 °F 29.50 in Calm     87% 0 in WeatherCatV3.04B91 W/m2
06:19 55.3 °F 51.5 °F 29.50 in Calm     87% 0 in WeatherCatV3.04B91 W/m2
06:24 55.1 °F 51.3 °F 29.50 in Calm   1 mph 87% 0 in WeatherCatV3.04B91 W/m2
06:29 55 °F 51.2 °F 29.50 in Calm   3 mph 87% 0 in WeatherCatV3.04B91 W/m2
06:34 55 °F 51.2 °F 29.50 in Calm     87% 0 in WeatherCatV3.04B91 W/m2
06:39 55 °F 51.2 °F 29.50 in Calm   4 mph 87% 0 in WeatherCatV3.04B91 W/m2
06:44 54.8 °F 51 °F 29.51 in Calm     87% 0 in WeatherCatV3.04B91 W/m2
06:49 54.8 °F 51 °F 29.51 in Calm     87% 0 in WeatherCatV3.04B91 W/m2
06:54 54.8 °F 50.69 °F 29.51 in Calm     86% 0 in WeatherCatV3.04B91 W/m2
06:59 54.7 °F 50.59 °F 29.51 in Calm   1 mph 86% 0 in WeatherCatV3.04B91 W/m2
07:04 54.7 °F 50.28 °F 29.51 in Calm   1 mph 85% 0 in WeatherCatV3.04B91 W/m2
07:09 54.8 °F 50.38 °F 29.51 in Calm   2 mph 85% 0 in WeatherCatV3.04B91 W/m2
07:13 54.8 °F 50.06 °F 29.51 in West 4 mph 4 mph 84% 0 in WeatherCatV3.04B91 W/m2
07:19 55 °F 50.25 °F 29.52 in Calm     84% 0 in WeatherCatV3.04B91 W/m2
07:24 55 °F 50.25 °F 29.52 in Calm   1 mph 84% 0 in WeatherCatV3.04B91 W/m2
07:29 54.8 °F 50.06 °F 29.52 in Calm   4 mph 84% 0 in WeatherCatV3.04B91 W/m2
07:34 54.5 °F 50.08 °F 29.52 in Calm     85% 0 in WeatherCatV3.04B91 W/m2
07:39 54.4 °F 49.98 °F 29.52 in NNE 3 mph 5 mph 85% 0 in WeatherCatV3.04B91 W/m2
07:44 54.2 °F 49.79 °F 29.53 in NNW 1 mph 1 mph 85% 0 in WeatherCatV3.04B91 W/m2
07:49 54.1 °F 49.69 °F 29.53 in NNW 1 mph 3 mph 85% 0 in WeatherCatV3.04B91 W/m2
07:54 53.9 °F 49.49 °F 29.53 in Calm   3 mph 85% 0 in WeatherCatV3.04B91 W/m2
07:59 53.9 °F 49.49 °F 29.54 in North 5 mph 5 mph 85% 0 in WeatherCatV3.04B91 W/m2
08:04 53.9 °F 49.18 °F 29.54 in Calm     84% 0 in WeatherCatV3.04B91 W/m2
08:09 53.9 °F 49.18 °F 29.54 in Calm     84% 0 in WeatherCatV3.04B91 W/m2
08:14 53.9 °F 49.18 °F 29.55 in Calm     84% 0 in WeatherCatV3.04B91 W/m2
08:19 53.8 °F 49.08 °F 29.55 in Calm   2 mph 84% 0 in WeatherCatV3.04B91 W/m2
08:24 53.8 °F 49.08 °F 29.55 in Calm   1 mph 84% 0 in WeatherCatV3.04B91 W/m2
08:29 53.8 °F 49.08 °F 29.56 in Calm     84% 0 in WeatherCatV3.04B91 W/m2
08:34 53.8 °F 49.08 °F 29.56 in NNE 2 mph 4 mph 84% 0 in WeatherCatV3.04B91 W/m2
08:39 53.8 °F 48.76 °F 29.56 in Calm   4 mph 83% 0 in WeatherCatV3.04B91 W/m2
08:44 53.9 °F 48.53 °F 29.56 in Calm     82% 0 in WeatherCatV3.04B91 W/m2
08:49 54.1 °F 48.73 °F 29.56 in Calm   1 mph 82% 0 in WeatherCatV3.04B91 W/m2
08:54 54.1 °F 48.4 °F 29.56 in Calm   5 mph 81% 0 in WeatherCatV3.04B91 W/m2
08:59 54.1 °F 48.4 °F 29.57 in Calm     81% 0 in WeatherCatV3.04B91 W/m2
09:04 54.1 °F 48.07 °F 29.57 in Calm   2 mph 80% 0 in WeatherCatV3.04B91 W/m2
09:09 54.2 °F 48.16 °F 29.57 in Calm     80% 0 in WeatherCatV3.04B91 W/m2
09:14 54.2 °F 47.83 °F 29.57 in Calm   2 mph 79% 0 in WeatherCatV3.04B91 W/m2
09:19 54.1 °F 47.73 °F 29.57 in Calm   1 mph 79% 0 in WeatherCatV3.04B91 W/m2
09:24 54.2 °F 47.83 °F 29.57 in NW 2 mph 2 mph 79% 0 in WeatherCatV3.04B91 W/m2
09:29 54.2 °F 47.49 °F 29.58 in Calm     78% 0 in WeatherCatV3.04B91 W/m2
09:34 54.2 °F 47.15 °F 29.58 in Calm   4 mph 77% 0 in WeatherCatV3.04B91 W/m2
09:39 54.4 °F 47.34 °F 29.58 in Calm   5 mph 77% 0 in WeatherCatV3.04B91 W/m2
09:44 54.7 °F 47.28 °F 29.58 in Calm   4 mph 76% 0 in WeatherCatV3.04B91 W/m2
09:49 54.7 °F 47.28 °F 29.58 in Calm   3 mph 76% 0 in WeatherCatV3.04B91 W/m2
09:54 54.8 °F 47.03 °F 29.58 in Calm     75% 0 in WeatherCatV3.04B91 W/m2
09:59 55 °F 47.22 °F 29.59 in NE 3 mph 3 mph 75% 0 in WeatherCatV3.04B91 W/m2
10:04 54.8 °F 46.67 °F 29.59 in Calm   3 mph 74% 0 in WeatherCatV3.04B91 W/m2
10:09 55 °F 46.87 °F 29.59 in Calm   1 mph 74% 0 in WeatherCatV3.04B91 W/m2
10:14 55 °F 46.87 °F 29.59 in Calm   11 mph 74% 0 in WeatherCatV3.04B91 W/m2
10:19 55.1 °F 46.96 °F 29.59 in Calm   1 mph 74% 0 in WeatherCatV3.04B91 W/m2
10:24 54.8 °F 47.03 °F 29.59 in Calm     75% 0 in WeatherCatV3.04B91 W/m2
10:29 54.8 °F 47.03 °F 29.59 in Calm   1 mph 75% 0 in WeatherCatV3.04B91 W/m2
10:34 54.7 °F 46.58 °F 29.59 in Calm     74% 0 in WeatherCatV3.04B91 W/m2
10:39 54.8 °F 47.03 °F 29.59 in Calm     75% 0 in WeatherCatV3.04B91 W/m2
10:44 55.1 °F 46.96 °F 29.60 in North 1 mph 2 mph 74% 0 in WeatherCatV3.04B91 W/m2
10:49 55.3 °F 47.15 °F 29.60 in Calm     74% 0 in WeatherCatV3.04B91 W/m2
10:54 55.4 °F 46.52 °F 29.60 in Calm   1 mph 72% 0 in WeatherCatV3.04B91 W/m2
10:59 55.6 °F 46.72 °F 29.61 in Calm   6 mph 72% 0 in WeatherCatV3.04B91 W/m2
11:04 55.6 °F 46.35 °F 29.61 in Calm   7 mph 71% 0 in WeatherCatV3.04B91 W/m2
11:09 55.3 °F 46.06 °F 29.61 in Calm   1 mph 71% 0 in WeatherCatV3.04B91 W/m2
11:14 55.1 °F 45.87 °F 29.63 in Calm   1 mph 71% 0 in WeatherCatV3.04B91 W/m2
11:19 55 °F 45.77 °F 29.63 in Calm     71% 0 in WeatherCatV3.04B91 W/m2
11:24 54.8 °F 45.58 °F 29.63 in Calm   3 mph 71% 0 in WeatherCatV3.04B91 W/m2
11:29 55 °F 45.77 °F 29.64 in Calm     71% 0 in WeatherCatV3.04B91 W/m2
11:34 55.1 °F 46.24 °F 29.64 in Calm   3 mph 72% 0 in WeatherCatV3.04B91 W/m2
11:39 55 °F 45.4 °F 29.64 in Calm   4 mph 70% 0 in WeatherCatV3.04B91 W/m2
11:44 55 °F 45.02 °F 29.65 in Calm     69% 0 in WeatherCatV3.04B91 W/m2
11:49 54.8 °F 44.05 °F 29.65 in North 4 mph 4 mph 67% 0 in WeatherCatV3.04B91 W/m2
11:54 55 °F 44.24 °F 29.65 in Calm   2 mph 67% 0 in WeatherCatV3.04B91 W/m2
11:59 55.3 °F 44.92 °F 29.66 in Calm     68% 0 in WeatherCatV3.04B91 W/m2
12:04 55.6 °F 44.82 °F 29.66 in Calm     67% 0 in WeatherCatV3.04B91 W/m2
12:09 55.4 °F 44.23 °F 29.66 in Calm   6 mph 66% 0 in WeatherCatV3.04B91 W/m2
12:14 55.3 °F 44.14 °F 29.66 in Calm   3 mph 66% 0 in WeatherCatV3.04B91 W/m2
12:19 55.6 °F 44.42 °F 29.66 in Calm   4 mph 66% 0 in WeatherCatV3.04B91 W/m2
12:24 56.2 °F 44.59 °F 29.66 in Calm   5 mph 65% 0 in WeatherCatV3.04B91 W/m2
12:29 56.6 °F 44.56 °F 29.67 in Calm   1 mph 64% 0 in WeatherCatV3.04B91 W/m2
12:34 56.7 °F 44.66 °F 29.67 in Calm   1 mph 64% 0 in WeatherCatV3.04B91 W/m2
12:39 56.9 °F 44.85 °F 29.67 in Calm   1 mph 64% 0 in WeatherCatV3.04B91 W/m2
12:44 56.9 °F 43.59 °F 29.66 in Calm     61% 0 in WeatherCatV3.04B91 W/m2
12:49 56.9 °F 43.16 °F 29.66 in Calm   3 mph 60% 0 in WeatherCatV3.04B91 W/m2
12:54 57.2 °F 43.87 °F 29.66 in Calm   2 mph 61% 0 in WeatherCatV3.04B91 W/m2
12:59 57.5 °F 43.72 °F 29.66 in Calm     60% 0 in WeatherCatV3.04B91 W/m2
13:04 57.5 °F 43.72 °F 29.66 in Calm   7 mph 60% 0 in WeatherCatV3.04B91 W/m2
13:09 57.5 °F 43.72 °F 29.66 in Calm   2 mph 60% 0 in WeatherCatV3.04B91 W/m2
13:14 57.5 °F 43.28 °F 29.66 in Calm   2 mph 59% 0 in WeatherCatV3.04B91 W/m2
13:19 57.5 °F 43.28 °F 29.66 in Calm     59% 0 in WeatherCatV3.04B91 W/m2
13:24 57.5 °F 43.28 °F 29.66 in Calm   2 mph 59% 0 in WeatherCatV3.04B91 W/m2
13:29 57.3 °F 42.65 °F 29.67 in Calm   2 mph 58% 0 in WeatherCatV3.04B91 W/m2
13:34 57.5 °F 42.84 °F 29.67 in Calm   7 mph 58% 0 in WeatherCatV3.04B91 W/m2
13:39 57.5 °F 42.84 °F 29.67 in Calm   1 mph 58% 0 in WeatherCatV3.04B91 W/m2
13:44 57.3 °F 43.1 °F 29.67 in Calm     59% 0 in WeatherCatV3.04B91 W/m2
13:49 57.2 °F 42.56 °F 29.67 in Calm   1 mph 58% 0 in WeatherCatV3.04B91 W/m2
13:54 57.2 °F 42.56 °F 29.67 in Calm   7 mph 58% 0 in WeatherCatV3.04B91 W/m2
13:59 57.5 °F 43.28 °F 29.69 in North 7 mph 7 mph 59% 0 in WeatherCatV3.04B91 W/m2
14:04 57.2 °F 42.56 °F 29.69 in WSW 5 mph 5 mph 58% 0 in WeatherCatV3.04B91 W/m2
14:09 56.9 °F 42.72 °F 29.69 in Calm   1 mph 59% 0 in WeatherCatV3.04B91 W/m2
14:13 56.7 °F 42.53 °F 29.69 in Calm   4 mph 59% 0 in WeatherCatV3.04B91 W/m2
14:19 56.7 °F 42.97 °F 29.69 in Calm     60% 0 in WeatherCatV3.04B91 W/m2
14:24 57 °F 43.68 °F 29.69 in Calm     61% 0 in WeatherCatV3.04B91 W/m2
14:29 57.5 °F 43.28 °F 29.70 in Calm   1 mph 59% 0 in WeatherCatV3.04B91 W/m2
14:34 58.1 °F 42.48 °F 29.70 in Calm   2 mph 56% 0 in WeatherCatV3.04B91 W/m2
14:39 57.8 °F 42.66 °F 29.70 in Calm     57% 0 in WeatherCatV3.04B91 W/m2
14:44 57.6 °F 43.38 °F 29.71 in Calm     59% 0 in WeatherCatV3.04B91 W/m2
14:49 57.3 °F 42.65 °F 29.71 in Calm   5 mph 58% 0 in WeatherCatV3.04B91 W/m2
14:54 57 °F 42.81 °F 29.71 in Calm     59% 0 in WeatherCatV3.04B91 W/m2
14:59 57.2 °F 42.56 °F 29.72 in Calm   3 mph 58% 0 in WeatherCatV3.04B91 W/m2
15:04 57.3 °F 42.2 °F 29.72 in Calm     57% 0 in WeatherCatV3.04B91 W/m2
15:09 57.3 °F 42.2 °F 29.72 in Calm   3 mph 57% 0 in WeatherCatV3.04B91 W/m2
15:14 57.3 °F 42.65 °F 29.72 in Calm     58% 0 in WeatherCatV3.04B91 W/m2
15:19 56.9 °F 42.72 °F 29.72 in Calm     59% 0 in WeatherCatV3.04B91 W/m2
15:24 56.7 °F 41.18 °F 29.72 in Calm     56% 0 in WeatherCatV3.04B91 W/m2
15:29 56.7 °F 41.64 °F 29.72 in Calm   1 mph 57% 0 in WeatherCatV3.04B91 W/m2
15:34 56.7 °F 41.18 °F 29.72 in Calm   2 mph 56% 0 in WeatherCatV3.04B91 W/m2
15:39 56.9 °F 41.37 °F 29.72 in Calm   1 mph 56% 0 in WeatherCatV3.04B91 W/m2
15:44 56.9 °F 41.37 °F 29.73 in Calm     56% 0 in WeatherCatV3.04B91 W/m2
15:49 56.9 °F 41.82 °F 29.73 in Calm   1 mph 57% 0 in WeatherCatV3.04B91 W/m2
15:54 56.7 °F 42.09 °F 29.73 in Calm   1 mph 58% 0 in WeatherCatV3.04B91 W/m2
15:59 56.6 °F 41.99 °F 29.74 in Calm   1 mph 58% 0 in WeatherCatV3.04B91 W/m2
16:04 56.6 °F 41.09 °F 29.74 in Calm   2 mph 56% 0 in WeatherCatV3.04B91 W/m2
16:09 56.6 °F 41.09 °F 29.74 in Calm   1 mph 56% 0 in WeatherCatV3.04B91 W/m2
16:14 56.7 °F 41.18 °F 29.74 in NW 1 mph 3 mph 56% 0 in WeatherCatV3.04B91 W/m2
16:19 56.6 °F 41.09 °F 29.74 in NW 1 mph 1 mph 56% 0 in WeatherCatV3.04B91 W/m2
16:24 56.5 °F 40.99 °F 29.74 in Calm   1 mph 56% 0 in WeatherCatV3.04B91 W/m2
16:29 56.3 °F 40.81 °F 29.74 in Calm   3 mph 56% 0 in WeatherCatV3.04B91 W/m2
16:34 56.3 °F 40.81 °F 29.74 in Calm   1 mph 56% 0 in WeatherCatV3.04B91 W/m2
16:39 56.5 °F 40.53 °F 29.74 in Calm   3 mph 55% 0 in WeatherCatV3.04B91 W/m2
16:44 56.3 °F 39.87 °F 29.75 in Calm   1 mph 54% 0 in WeatherCatV3.04B91 W/m2
16:49 56.3 °F 40.34 °F 29.75 in Calm   2 mph 55% 0 in WeatherCatV3.04B91 W/m2
16:54 56.3 °F 39.87 °F 29.75 in Calm   2 mph 54% 0 in WeatherCatV3.04B91 W/m2
16:59 56.3 °F 39.87 °F 29.75 in Calm   1 mph 54% 0 in WeatherCatV3.04B91 W/m2
17:04 56.3 °F 40.34 °F 29.75 in Calm     55% 0 in WeatherCatV3.04B91 W/m2
17:09 56 °F 40.53 °F 29.75 in Calm   7 mph 56% 0 in WeatherCatV3.04B91 W/m2
17:14 55.9 °F 41.34 °F 29.75 in Calm     58% 0 in WeatherCatV3.04B91 W/m2
17:19 55.9 °F 40.43 °F 29.75 in NNW 1 mph 2 mph 56% 0 in WeatherCatV3.04B91 W/m2
17:24 55.7 °F 40.25 °F 29.75 in Calm   1 mph 56% 0 in WeatherCatV3.04B91 W/m2
17:29 55.6 °F 40.61 °F 29.75 in Calm     57% 0 in WeatherCatV3.04B91 W/m2
17:34 55.1 °F 40.59 °F 29.75 in Calm   7 mph 58% 0 in WeatherCatV3.04B91 W/m2
17:39 55 °F 40.94 °F 29.75 in NNW 5 mph 5 mph 59% 0 in WeatherCatV3.04B91 W/m2
17:44 54.8 °F 41.18 °F 29.76 in Calm   2 mph 60% 0 in WeatherCatV3.04B91 W/m2
17:49 54.5 °F 40.9 °F 29.76 in Calm     60% 0 in WeatherCatV3.04B91 W/m2
17:54 54.5 °F 40.9 °F 29.76 in Calm   1 mph 60% 0 in WeatherCatV3.04B91 W/m2
17:59 54.5 °F 40.9 °F 29.77 in Calm   1 mph 60% 0 in WeatherCatV3.04B91 W/m2
18:04 54.5 °F 40.9 °F 29.77 in NW 1 mph 1 mph 60% 0 in WeatherCatV3.04B91 W/m2
18:09 54.5 °F 40.47 °F 29.77 in Calm     59% 0 in WeatherCatV3.04B91 W/m2
18:14 54.5 °F 40.47 °F 29.77 in Calm     59% 0 in WeatherCatV3.04B91 W/m2
18:19 54.5 °F 40.03 °F 29.77 in Calm     58% 0 in WeatherCatV3.04B91 W/m2
18:24 54.5 °F 40.03 °F 29.77 in Calm     58% 0 in WeatherCatV3.04B91 W/m2
18:29 54.4 °F 39.93 °F 29.77 in Calm     58% 0 in WeatherCatV3.04B91 W/m2
18:34 54.4 °F 40.37 °F 29.77 in Calm     59% 0 in WeatherCatV3.04B91 W/m2
18:39 54.5 °F 40.03 °F 29.77 in Calm   2 mph 58% 0 in WeatherCatV3.04B91 W/m2
18:44 54.7 °F 40.21 °F 29.78 in Calm     58% 0 in WeatherCatV3.04B91 W/m2
18:49 54.7 °F 40.21 °F 29.78 in Calm     58% 0 in WeatherCatV3.04B91 W/m2
18:54 54.5 °F 39.58 °F 29.78 in Calm     57% 0 in WeatherCatV3.04B91 W/m2
18:59 54.4 °F 39.93 °F 29.78 in Calm     58% 0 in WeatherCatV3.04B91 W/m2
19:04 54.2 °F 39.75 °F 29.78 in Calm     58% 0 in WeatherCatV3.04B91 W/m2
19:09 54.2 °F 39.75 °F 29.78 in Calm     58% 0 in WeatherCatV3.04B91 W/m2
19:14 54.2 °F 39.75 °F 29.79 in Calm     58% 0 in WeatherCatV3.04B91 W/m2
19:19 54.1 °F 40.09 °F 29.79 in Calm     59% 0 in WeatherCatV3.04B91 W/m2
19:24 54.1 °F 40.09 °F 29.79 in Calm     59% 0 in WeatherCatV3.04B91 W/m2
19:29 53.9 °F 40.34 °F 29.79 in Calm   1 mph 60% 0 in WeatherCatV3.04B91 W/m2
19:34 53.6 °F 39.62 °F 29.79 in Calm   1 mph 59% 0 in WeatherCatV3.04B91 W/m2
19:39 53.5 °F 39.53 °F 29.79 in Calm     59% 0 in WeatherCatV3.04B91 W/m2
19:44 53.3 °F 39.34 °F 29.81 in Calm   2 mph 59% 0 in WeatherCatV3.04B91 W/m2
19:49 53.3 °F 39.34 °F 29.81 in Calm     59% 0 in WeatherCatV3.04B91 W/m2
19:54 53.2 °F 39.25 °F 29.81 in Calm   3 mph 59% 0 in WeatherCatV3.04B91 W/m2
19:59 53.2 °F 39.25 °F 29.81 in Calm     59% 0 in WeatherCatV3.04B91 W/m2
20:04 53.2 °F 39.25 °F 29.81 in Calm     59% 0 in WeatherCatV3.04B91 W/m2
20:09 53.1 °F 39.15 °F 29.81 in Calm     59% 0 in WeatherCatV3.04B91 W/m2
20:14 53.1 °F 39.15 °F 29.82 in Calm     59% 0 in WeatherCatV3.04B91 W/m2
20:19 53.1 °F 38.72 °F 29.82 in Calm     58% 0 in WeatherCatV3.04B91 W/m2
20:24 53.1 °F 39.15 °F 29.82 in Calm     59% 0 in WeatherCatV3.04B91 W/m2
20:29 53.1 °F 39.15 °F 29.81 in Calm     59% 0 in WeatherCatV3.04B91 W/m2
20:34 52.9 °F 38.97 °F 29.81 in Calm     59% 0 in WeatherCatV3.04B91 W/m2
20:39 52.9 °F 39.4 °F 29.81 in Calm     60% 0 in WeatherCatV3.04B91 W/m2
20:44 52.9 °F 39.4 °F 29.82 in Calm     60% 0 in WeatherCatV3.04B91 W/m2
20:49 52.9 °F 38.97 °F 29.82 in Calm     59% 0 in WeatherCatV3.04B91 W/m2
20:54 52.9 °F 39.4 °F 29.82 in Calm     60% 0 in WeatherCatV3.04B91 W/m2
20:59 52.9 °F 39.4 °F 29.83 in Calm     60% 0 in WeatherCatV3.04B91 W/m2
21:04 52.8 °F 39.3 °F 29.83 in Calm     60% 0 in WeatherCatV3.04B91 W/m2
21:09 52.8 °F 39.3 °F 29.83 in Calm     60% 0 in WeatherCatV3.04B91 W/m2
21:14 52.8 °F 39.3 °F 29.84 in Calm   1 mph 60% 0 in WeatherCatV3.04B91 W/m2
21:19 52.9 °F 38.97 °F 29.84 in Calm     59% 0 in WeatherCatV3.04B91 W/m2
21:24 52.9 °F 39.4 °F 29.84 in Calm     60% 0 in WeatherCatV3.04B91 W/m2
21:29 52.9 °F 39.4 °F 29.84 in Calm     60% 0 in WeatherCatV3.04B91 W/m2
21:34 52.8 °F 39.3 °F 29.84 in Calm     60% 0 in WeatherCatV3.04B91 W/m2
21:39 52.8 °F 39.3 °F 29.84 in Calm     60% 0 in WeatherCatV3.04B91 W/m2
21:43 52.8 °F 39.3 °F 29.84 in Calm     60% 0 in WeatherCatV3.04B91 W/m2
21:49 52.9 °F 39.4 °F 29.85 in Calm     60% 0 in WeatherCatV3.04B91 W/m2
21:54 52.9 °F 39.4 °F 29.85 in Calm     60% 0 in WeatherCatV3.04B91 W/m2
21:59 52.9 °F 39.4 °F 29.87 in Calm     60% 0 in WeatherCatV3.04B91 W/m2
22:04 52.9 °F 39.82 °F 29.87 in West 2 mph 2 mph 61% 0 in WeatherCatV3.04B91 W/m2
22:09 52.8 °F 39.73 °F 29.87 in Calm   1 mph 61% 0 in WeatherCatV3.04B91 W/m2
22:14 52.8 °F 40.14 °F 29.87 in Calm   4 mph 62% 0 in WeatherCatV3.04B91 W/m2
22:19 52.6 °F 40.77 °F 29.87 in Calm   1 mph 64% 0 in WeatherCatV3.04B91 W/m2
22:24 52.5 °F 41.08 °F 29.87 in Calm     65% 0 in WeatherCatV3.04B91 W/m2
22:29 52.3 °F 40.89 °F 29.88 in Calm     65% 0 in WeatherCatV3.04B91 W/m2
22:34 52.2 °F 41.19 °F 29.88 in Calm     66% 0 in WeatherCatV3.04B91 W/m2
22:39 51.9 °F 40.9 °F 29.88 in Calm     66% 0 in WeatherCatV3.04B91 W/m2
22:44 51.9 °F 40.9 °F 29.89 in Calm     66% 0 in WeatherCatV3.04B91 W/m2
22:49 51.7 °F 41.1 °F 29.89 in Calm     67% 0 in WeatherCatV3.04B91 W/m2
22:54 51.7 °F 41.1 °F 29.89 in Calm     67% 0 in WeatherCatV3.04B91 W/m2
22:59 51.6 °F 41 °F 29.90 in Calm   2 mph 67% 0 in WeatherCatV3.04B91 W/m2
23:04 51.4 °F 40.81 °F 29.90 in Calm     67% 0 in WeatherCatV3.04B91 W/m2
23:09 51.4 °F 41.2 °F 29.90 in Calm   1 mph 68% 0 in WeatherCatV3.04B91 W/m2
23:14 51.3 °F 41.48 °F 29.90 in Calm   3 mph 69% 0 in WeatherCatV3.04B91 W/m2
23:19 51.3 °F 41.48 °F 29.90 in North 2 mph 3 mph 69% 0 in WeatherCatV3.04B91 W/m2
23:24 51.1 °F 41.66 °F 29.90 in Calm     70% 0 in WeatherCatV3.04B91 W/m2
23:29 51 °F 41.93 °F 29.90 in Calm   3 mph 71% 0 in WeatherCatV3.04B91 W/m2
23:34 50.8 °F 41.74 °F 29.90 in Calm     71% 0 in WeatherCatV3.04B91 W/m2
23:39 50.5 °F 41.81 °F 29.90 in North 2 mph 2 mph 72% 0 in WeatherCatV3.04B91 W/m2
23:44 50.4 °F 42.08 °F 29.91 in Calm   1 mph 73% 0 in WeatherCatV3.04B91 W/m2
23:49 50.1 °F 42.14 °F 29.91 in Calm     74% 0 in WeatherCatV3.04B91 W/m2
23:54 50.1 °F 42.14 °F 29.91 in Calm     74% 0 in WeatherCatV3.04B91 W/m2
23:59 49.9 °F 41.95 °F 29.92 in Calm     74% 0 in WeatherCatV3.04B91 W/m2
Bellevue, Nebraska, USA
Compliments of Weather Underground - 3.25 mb